Time;durP1;ratioP1;P1;durP2;ratioP2;P2;SDS_P1;SDS_P2;PMS_P1;PMS_P2;Temp;Humidity;BMP_temperature;BMP_pressure;BME280_temperature;BME280_humidity;BME280_pressure;Samples;Min_cycle;Max_cycle;Signal;HPM_P1;HPM_P2
2023/01/10 00:00:24;;;;;;;1.67;1.53;;;9.00;1.00;;;;;;5046868;28;20480;-53
2023/01/10 00:02:50;;;;;;;2.97;1.77;;;9.00;1.00;;;;;;5048246;28;21140;-54
2023/01/10 00:05:17;;;;;;;2.87;1.97;;;9.10;1.00;;;;;;5047851;28;20459;-55
2023/01/10 00:07:43;;;;;;;1.70;1.60;;;9.20;1.00;;;;;;5045949;28;20870;-55
2023/01/10 00:10:09;;;;;;;2.30;1.60;;;9.20;1.00;;;;;;5037059;28;20447;-54
2023/01/10 00:15:20;;;;;;;3.97;1.50;;;9.20;1.00;;;;;;5041491;28;20470;-52
2023/01/10 00:17:46;;;;;;;4.47;1.60;;;9.20;1.00;;;;;;5039510;28;20457;-55
2023/01/10 00:20:12;;;;;;;2.00;1.80;;;9.20;1.00;;;;;;5038702;28;20456;-55
2023/01/10 00:22:38;;;;;;;1.70;1.60;;;9.20;1.00;;;;;;5043378;28;20190;-55
2023/01/10 00:25:04;;;;;;;2.40;1.53;;;9.20;1.00;;;;;;5037759;28;20425;-54
2023/01/10 00:27:30;;;;;;;3.37;1.70;;;9.10;1.00;;;;;;5045581;28;20746;-53
2023/01/10 00:29:57;;;;;;;4.43;2.03;;;9.20;1.00;;;;;;5048773;28;20441;-54
2023/01/10 00:32:22;;;;;;;2.60;1.77;;;9.20;1.00;;;;;;5044784;28;20194;-56
2023/01/10 00:34:48;;;;;;;1.97;1.83;;;9.10;1.00;;;;;;5038710;28;21860;-54
2023/01/10 00:37:14;;;;;;;3.33;1.80;;;9.20;1.00;;;;;;5038063;28;20194;-54
2023/01/10 00:39:39;;;;;;;3.00;2.23;;;9.10;1.00;;;;;;5040875;28;20187;-53
2023/01/10 00:44:50;;;;;;;2.73;2.50;;;9.00;1.00;;;;;;5038324;28;20591;-56
2023/01/10 00:47:15;;;;;;;1.87;1.60;;;9.00;1.00;;;;;;5042711;28;20448;-55
2023/01/10 00:49:41;;;;;;;2.30;2.10;;;9.00;1.00;;;;;;5047280;28;20818;-53
2023/01/10 00:52:07;;;;;;;2.97;2.23;;;8.90;1.00;;;;;;5047161;28;20941;-54
2023/01/10 00:54:33;;;;;;;2.10;1.60;;;8.80;1.00;;;;;;5044011;28;20202;-55
2023/01/10 00:56:59;;;;;;;2.97;2.33;;;8.70;1.00;;;;;;5042856;28;20204;-54
2023/01/10 00:59:24;;;;;;;4.13;2.20;;;8.80;1.00;;;;;;5048893;28;20410;-55
2023/01/10 01:01:50;;;;;;;2.33;2.13;;;8.90;1.00;;;;;;5046608;28;20209;-54
2023/01/10 01:04:17;;;;;;;3.83;1.80;;;8.90;1.00;;;;;;5045943;28;20213;-55
2023/01/10 01:06:44;;;;;;;2.93;2.30;;;8.90;1.00;;;;;;5046360;28;20450;-54
2023/01/10 01:09:10;;;;;;;3.60;1.90;;;8.90;1.00;;;;;;5045902;28;20440;-54
2023/01/10 01:11:36;;;;;;;2.53;1.93;;;8.90;1.00;;;;;;5045363;28;20466;-53
2023/01/10 01:14:01;;;;;;;2.30;2.10;;;9.00;1.00;;;;;;5045604;28;20196;-54
2023/01/10 01:16:27;;;;;;;3.73;2.33;;;8.80;1.00;;;;;;5048267;28;20247;-55
2023/01/10 01:18:53;;;;;;;4.60;2.33;;;8.80;1.00;;;;;;5048474;28;20277;-54
2023/01/10 01:21:20;;;;;;;2.70;1.87;;;8.80;1.00;;;;;;5047606;28;20221;-55
2023/01/10 01:23:45;;;;;;;5.10;2.93;;;8.90;1.00;;;;;;5046976;28;20190;-54
2023/01/10 01:26:11;;;;;;;3.23;2.43;;;8.80;1.00;;;;;;5047101;28;20461;-53
2023/01/10 01:28:37;;;;;;;2.77;1.80;;;8.70;1.00;;;;;;5045945;28;20232;-54
2023/01/10 01:31:09;;;;;;;2.13;2.03;;;8.70;1.00;;;;;;5046601;28;20263;-55
2023/01/10 01:33:34;;;;;;;3.93;2.60;;;8.60;1.00;;;;;;5046653;28;20224;-54
2023/01/10 01:36:00;;;;;;;2.43;1.50;;;8.70;1.00;;;;;;5044447;28;20547;-54
2023/01/10 01:38:25;;;;;;;3.97;2.27;;;8.70;1.00;;;;;;5047213;28;20612;-53
2023/01/10 01:40:51;;;;;;;2.30;2.10;;;8.70;1.00;;;;;;5045854;28;20879;-54
2023/01/10 01:43:26;;;;;;;2.30;2.10;;;8.80;1.00;;;;;;5047684;28;20186;-54
2023/01/10 01:45:53;;;;;;;3.60;1.83;;;7.60;1.00;;;;;;5046101;28;20189;-54
2023/01/10 01:48:30;;;;;;;3.60;2.07;;;8.80;1.00;;;;;;5047562;28;20451;-54
2023/01/10 01:51:09;;;;;;;3.63;2.83;;;8.70;1.00;;;;;;5040861;28;20463;-53
2023/01/10 01:53:47;;;;;;;2.23;2.10;;;8.60;1.00;;;;;;5045294;28;20473;-54
2023/01/10 01:56:24;;;;;;;4.30;2.13;;;8.60;1.00;;;;;;5042736;28;20760;-54
2023/01/10 01:59:11;;;;;;;5.30;3.00;;;8.60;1.00;;;;;;5045430;28;20550;-53
2023/01/10 02:01:40;;;;;;;3.83;2.47;;;8.60;1.00;;;;;;5043901;28;20554;-55
2023/01/10 02:04:45;;;;;;;6.07;2.70;;;8.60;1.00;;;;;;5048426;28;20442;-55
2023/01/10 02:07:12;;;;;;;3.77;2.30;;;8.50;1.00;;;;;;5028196;28;20539;-55
2023/01/10 02:10:00;;;;;;;4.20;3.00;;;8.50;1.00;;;;;;5048611;28;20444;-54
2023/01/10 02:12:28;;;;;;;3.67;2.37;;;8.50;1.00;;;;;;5051121;28;20954;-53
2023/01/10 02:14:54;;;;;;;5.53;2.13;;;8.40;1.00;;;;;;5050455;28;20977;-54
2023/01/10 02:17:20;;;;;;;3.50;2.50;;;8.40;1.00;;;;;;5050394;28;20459;-53
2023/01/10 02:19:51;;;;;;;4.07;3.00;;;8.40;1.00;;;;;;5050604;28;20444;-54
2023/01/10 02:22:38;;;;;;;2.87;2.60;;;8.40;1.00;;;;;;5049115;28;20527;-54
2023/01/10 02:25:22;;;;;;;4.33;2.53;;;8.40;1.00;;;;;;5048379;28;20928;-53
2023/01/10 02:27:57;;;;;;;3.77;2.83;;;8.50;1.00;;;;;;5051537;28;20447;-54
2023/01/10 02:30:34;;;;;;;4.50;2.47;;;8.40;1.00;;;;;;5050822;28;21221;-54
2023/01/10 02:33:21;;;;;;;4.50;2.40;;;8.40;1.00;;;;;;5050282;28;20931;-54
2023/01/10 02:35:59;;;;;;;3.93;2.70;;;8.40;1.00;;;;;;5049751;28;20448;-55
2023/01/10 02:38:37;;;;;;;3.43;2.60;;;8.30;1.00;;;;;;5051136;28;20448;-54
2023/01/10 02:41:03;;;;;;;6.53;3.33;;;8.20;1.00;;;;;;5050473;28;21249;-55
2023/01/10 02:43:41;;;;;;;4.17;3.17;;;8.20;1.00;;;;;;5051065;28;20441;-53
2023/01/10 02:46:29;;;;;;;3.93;2.93;;;8.30;1.00;;;;;;5044505;28;20181;-54
2023/01/10 02:48:55;;;;;;;5.97;3.40;;;8.30;1.00;;;;;;5039461;28;20479;-53
2023/01/10 02:51:26;;;;;;;3.43;2.80;;;8.10;1.00;;;;;;5037032;28;20444;-54
2023/01/10 02:54:11;;;;;;;6.43;3.40;;;8.10;1.00;;;;;;5039362;28;21111;-53
2023/01/10 02:56:54;;;;;;;4.53;3.10;;;8.20;1.00;;;;;;5039119;28;20438;-54
2023/01/10 02:59:22;;;;;;;3.50;3.20;;;8.10;1.00;;;;;;5039585;28;20518;-54
2023/01/10 03:01:57;;;;;;;4.07;3.60;;;8.00;1.00;;;;;;5044941;28;20555;-55
2023/01/10 03:04:40;;;;;;;5.53;3.43;;;8.10;1.00;;;;;;5037619;28;20422;-54
2023/01/10 03:07:14;;;;;;;4.53;3.40;;;8.20;1.00;;;;;;5039009;28;20431;-53
2023/01/10 03:10:06;;;;;;;7.10;3.30;;;8.10;1.00;;;;;;5040277;28;20509;-53
2023/01/10 03:12:49;;;;;;;6.27;3.33;;;8.10;1.00;;;;;;5038264;28;20996;-54
2023/01/10 03:15:18;;;;;;;4.80;3.00;;;8.20;1.00;;;;;;5045170;28;20460;-54
2023/01/10 03:17:48;;;;;;;5.50;3.50;;;8.20;1.00;;;;;;5053114;28;20455;-53
2023/01/10 03:20:16;;;;;;;8.57;3.53;;;8.10;1.00;;;;;;5047563;28;20448;-54
2023/01/10 03:22:43;;;;;;;3.90;3.30;;;8.20;1.00;;;;;;5049147;28;20541;-53
2023/01/10 03:25:13;;;;;;;4.77;3.20;;;8.10;1.00;;;;;;5046772;28;20450;-53
2023/01/10 03:27:51;;;;;;;5.20;3.67;;;8.00;1.00;;;;;;5048096;28;21054;-54
2023/01/10 03:30:30;;;;;;;3.97;3.57;;;8.10;1.00;;;;;;5050283;28;20923;-54
2023/01/10 03:32:58;;;;;;;7.00;3.53;;;8.10;1.00;;;;;;5048678;28;20477;-54
2023/01/10 03:35:45;;;;;;;5.10;3.40;;;8.20;1.00;;;;;;5049169;28;20450;-54
2023/01/10 03:38:59;;;;;;;3.60;2.73;;;8.10;1.00;;;;;;5047081;28;20455;-53
2023/01/10 03:41:49;;;;;;;6.53;3.80;;;8.20;1.00;;;;;;5023398;28;20547;-54
2023/01/10 03:44:44;;;;;;;4.50;2.90;;;8.20;1.00;;;;;;5048275;28;20471;-53
2023/01/10 03:47:29;;;;;;;3.43;3.13;;;8.30;1.00;;;;;;5047653;28;20806;-54
2023/01/10 03:50:23;;;;;;;9.20;4.30;;;8.20;1.00;;;;;;5046467;28;20985;-53
2023/01/10 03:52:49;;;;;;;5.40;3.60;;;8.30;1.00;;;;;;5045286;28;20455;-54
2023/01/10 03:55:20;;;;;;;5.83;3.37;;;8.20;1.00;;;;;;5048236;28;20508;-55
2023/01/10 03:57:46;;;;;;;7.20;3.50;;;8.30;1.00;;;;;;5046837;28;20200;-53
2023/01/10 04:00:13;;;;;;;8.63;4.40;;;8.20;1.00;;;;;;5047891;28;20440;-55
2023/01/10 04:02:38;;;;;;;6.00;4.33;;;8.20;1.00;;;;;;5049110;28;20213;-54
2023/01/10 04:05:05;;;;;;;7.17;4.40;;;8.30;1.00;;;;;;5047573;28;20468;-53
2023/01/10 04:07:30;;;;;;;6.27;3.80;;;8.30;1.00;;;;;;5047312;28;20539;-54
2023/01/10 04:09:56;;;;;;;5.97;4.50;;;8.30;1.00;;;;;;5048587;28;20439;-54
2023/01/10 04:12:22;;;;;;;5.07;3.77;;;8.30;1.00;;;;;;5048993;28;20193;-53
2023/01/10 04:14:48;;;;;;;6.33;3.70;;;8.20;1.00;;;;;;5045787;28;20621;-54
2023/01/10 04:17:15;;;;;;;5.60;3.93;;;8.30;1.00;;;;;;5042110;28;20473;-55
2023/01/10 04:19:41;;;;;;;4.70;3.40;;;8.30;1.00;;;;;;5041946;28;20705;-55
2023/01/10 04:22:08;;;;;;;6.57;4.20;;;8.30;1.00;;;;;;5047990;28;21078;-53
2023/01/10 04:24:34;;;;;;;5.90;3.90;;;8.20;1.00;;;;;;5043119;28;20503;-55
2023/01/10 04:27:00;;;;;;;6.00;3.80;;;8.10;1.00;;;;;;5048030;28;20532;-54
2023/01/10 04:29:26;;;;;;;4.23;3.50;;;8.10;1.00;;;;;;5046410;28;20190;-53
2023/01/10 04:31:52;;;;;;;6.43;4.07;;;8.20;1.00;;;;;;5045304;28;20185;-52
2023/01/10 04:34:19;;;;;;;4.23;3.30;;;8.10;1.00;;;;;;5047157;28;20429;-54
2023/01/10 04:36:45;;;;;;;5.97;3.90;;;8.10;1.00;;;;;;5048535;28;20440;-53
2023/01/10 04:39:11;;;;;;;8.37;4.60;;;8.10;1.00;;;;;;5048633;28;20475;-55
2023/01/10 04:41:37;;;;;;;5.73;3.70;;;8.20;1.00;;;;;;5049368;28;20525;-55
2023/01/10 04:44:03;;;;;;;5.60;4.30;;;8.30;1.00;;;;;;5043276;28;20961;-54
2023/01/10 04:46:29;;;;;;;5.40;3.90;;;8.30;1.00;;;;;;5043585;28;20222;-54
2023/01/10 04:48:55;;;;;;;8.03;4.50;;;8.10;1.00;;;;;;5045835;28;20469;-53
2023/01/10 04:51:21;;;;;;;6.27;4.17;;;8.00;1.00;;;;;;5044603;28;20208;-54
2023/01/10 04:53:46;;;;;;;6.27;4.07;;;8.20;1.00;;;;;;5044307;28;20185;-54
2023/01/10 04:56:18;;;;;;;6.37;4.30;;;8.10;1.00;;;;;;5044415;28;20481;-55
2023/01/10 04:58:44;;;;;;;6.43;4.40;;;8.10;1.00;;;;;;5052398;28;20270;-54
2023/01/10 05:01:15;;;;;;;7.27;4.73;;;8.10;1.00;;;;;;5046987;28;21236;-54
2023/01/10 05:03:41;;;;;;;7.33;3.97;;;8.00;1.00;;;;;;5047413;28;20952;-54
2023/01/10 05:06:07;;;;;;;6.70;4.40;;;8.00;1.00;;;;;;5039293;28;20418;-54
2023/01/10 05:08:33;;;;;;;5.90;4.30;;;8.00;1.00;;;;;;5044067;28;20186;-53
2023/01/10 05:10:58;;;;;;;8.77;4.40;;;8.10;1.00;;;;;;5046812;28;20473;-54
2023/01/10 05:13:25;;;;;;;6.10;4.40;;;8.30;1.00;;;;;;5047301;28;20442;-54
2023/01/10 05:15:55;;;;;;;9.07;5.27;;;8.20;1.00;;;;;;5046973;28;20196;-55
2023/01/10 05:18:21;;;;;;;6.57;4.47;;;8.20;1.00;;;;;;5047969;28;20433;-54
2023/01/10 05:20:46;;;;;;;7.00;4.83;;;8.20;1.00;;;;;;5046598;28;20609;-53
2023/01/10 05:23:12;;;;;;;8.07;5.20;;;8.20;1.00;;;;;;5047862;28;20527;-55
2023/01/10 05:25:38;;;;;;;6.00;4.33;;;8.20;1.00;;;;;;5047622;28;20197;-54
2023/01/10 05:28:03;;;;;;;7.30;5.47;;;8.20;1.00;;;;;;5047883;28;20240;-53
2023/01/10 05:30:29;;;;;;;6.90;5.40;;;8.20;1.00;;;;;;5047769;28;20277;-54
2023/01/10 05:32:54;;;;;;;8.90;5.47;;;8.20;1.00;;;;;;5045658;28;20188;-54
2023/01/10 05:35:20;;;;;;;5.70;4.50;;;8.20;1.00;;;;;;5047632;28;20188;-54
2023/01/10 05:37:46;;;;;;;6.73;4.90;;;8.30;1.00;;;;;;5047208;28;20193;-54
2023/01/10 05:40:11;;;;;;;8.67;5.77;;;8.30;1.00;;;;;;5047331;28;20283;-57
2023/01/10 05:42:37;;;;;;;9.20;5.20;;;8.30;1.00;;;;;;5049119;28;20226;-54
2023/01/10 05:45:03;;;;;;;7.67;5.10;;;8.30;1.00;;;;;;5050814;28;20546;-55
2023/01/10 05:47:29;;;;;;;7.93;4.00;;;8.30;1.00;;;;;;5051395;28;20182;-54
2023/01/10 05:49:55;;;;;;;5.93;4.80;;;8.30;1.00;;;;;;5050946;28;20457;-56
2023/01/10 05:52:20;;;;;;;7.70;5.10;;;8.30;1.00;;;;;;5050606;28;20721;-54
2023/01/10 05:54:46;;;;;;;7.00;5.43;;;8.20;1.00;;;;;;5050763;28;20197;-54
2023/01/10 05:57:11;;;;;;;5.57;4.10;;;8.10;1.00;;;;;;5050515;28;20206;-54
2023/01/10 05:59:37;;;;;;;6.03;5.00;;;7.90;1.00;;;;;;5048645;28;20321;-54
2023/01/10 06:02:03;;;;;;;8.53;4.67;;;8.20;1.00;;;;;;5050411;28;20259;-55
2023/01/10 06:04:28;;;;;;;7.20;4.33;;;8.20;1.00;;;;;;5050490;28;20239;-54
2023/01/10 06:06:54;;;;;;;10.47;4.60;;;8.20;1.00;;;;;;5052267;28;20184;-56
2023/01/10 06:09:19;;;;;;;6.00;5.00;;;8.20;1.00;;;;;;5053340;28;20185;-54
2023/01/10 06:11:45;;;;;;;7.83;5.60;;;8.20;1.00;;;;;;5050683;28;20261;-55
2023/01/10 06:14:11;;;;;;;9.03;5.20;;;8.10;1.00;;;;;;5051375;28;20213;-56
2023/01/10 06:16:36;;;;;;;9.10;4.80;;;8.20;1.00;;;;;;5051842;28;20186;-55
2023/01/10 06:19:02;;;;;;;9.30;5.13;;;8.30;1.00;;;;;;5051981;28;20587;-56
2023/01/10 06:21:28;;;;;;;7.83;5.67;;;8.40;1.00;;;;;;5052098;28;20250;-54
2023/01/10 06:23:53;;;;;;;10.00;5.80;;;8.40;1.00;;;;;;5050248;28;20190;-54
2023/01/10 06:26:19;;;;;;;9.00;5.40;;;8.20;1.00;;;;;;5051545;28;20173;-54
2023/01/10 06:28:44;;;;;;;7.60;5.80;;;8.10;1.00;;;;;;5047762;28;20183;-54
2023/01/10 06:31:10;;;;;;;6.87;5.30;;;8.00;1.00;;;;;;5050501;28;20189;-55
2023/01/10 06:33:37;;;;;;;9.50;5.13;;;8.10;1.00;;;;;;5050601;28;20276;-55
2023/01/10 06:36:03;;;;;;;7.57;5.63;;;8.20;1.00;;;;;;5050802;28;20647;-54
2023/01/10 06:38:29;;;;;;;9.73;5.83;;;8.20;1.00;;;;;;5049468;28;20956;-55
2023/01/10 06:40:55;;;;;;;7.20;5.20;;;8.20;1.00;;;;;;5051869;28;20496;-54
2023/01/10 06:43:20;;;;;;;8.03;5.10;;;8.20;1.00;;;;;;5050167;28;20232;-55
2023/01/10 06:45:46;;;;;;;6.50;5.40;;;8.10;1.00;;;;;;5051155;28;20220;-54
2023/01/10 06:48:11;;;;;;;7.77;5.60;;;8.00;1.00;;;;;;5051204;28;20205;-55
2023/01/10 06:50:37;;;;;;;6.30;5.47;;;8.00;1.00;;;;;;5051105;28;20237;-54
2023/01/10 06:53:03;;;;;;;6.50;4.93;;;8.00;1.00;;;;;;5049738;28;20288;-54
2023/01/10 06:55:30;;;;;;;7.30;5.33;;;8.00;1.00;;;;;;5050451;28;20259;-54
2023/01/10 06:58:01;;;;;;;7.80;5.33;;;8.10;1.00;;;;;;5050577;28;20451;-54
2023/01/10 07:00:28;;;;;;;6.33;5.03;;;8.20;1.00;;;;;;5050977;28;20189;-55
2023/01/10 07:02:58;;;;;;;8.00;5.40;;;8.20;1.00;;;;;;5050646;28;20968;-54
2023/01/10 07:05:24;;;;;;;6.20;4.70;;;8.10;1.00;;;;;;5045604;28;20558;-55
2023/01/10 07:07:49;;;;;;;6.73;5.20;;;8.00;1.00;;;;;;5050658;28;20539;-54
2023/01/10 07:10:16;;;;;;;8.97;5.30;;;8.00;1.00;;;;;;5050313;28;20189;-55
2023/01/10 07:12:41;;;;;;;6.50;4.83;;;7.90;1.00;;;;;;5050363;28;20189;-55
2023/01/10 07:15:07;;;;;;;6.93;4.70;;;8.00;1.00;;;;;;5049865;28;21128;-56
2023/01/10 07:17:33;;;;;;;7.40;4.60;;;8.00;1.00;;;;;;5050769;28;20244;-54
2023/01/10 07:19:59;;;;;;;8.03;5.40;;;8.00;1.00;;;;;;5050951;28;20953;-54
2023/01/10 07:22:25;;;;;;;9.80;5.90;;;8.10;1.00;;;;;;5049801;28;20582;-55
2023/01/10 07:24:51;;;;;;;6.50;5.13;;;8.10;1.00;;;;;;5047502;28;20536;-54
2023/01/10 07:27:16;;;;;;;5.70;5.00;;;8.10;1.00;;;;;;5050700;28;20212;-55
2023/01/10 07:29:42;;;;;;;9.60;6.10;;;8.10;1.00;;;;;;5049433;28;20190;-56
2023/01/10 07:32:08;;;;;;;6.73;5.40;;;8.10;1.00;;;;;;5049884;28;20193;-56
2023/01/10 07:34:33;;;;;;;6.43;5.37;;;8.20;1.00;;;;;;5050538;28;20194;-55
2023/01/10 07:37:00;;;;;;;7.13;5.63;;;8.30;1.00;;;;;;5049862;28;20243;-55
2023/01/10 07:39:25;;;;;;;6.77;5.10;;;8.10;1.00;;;;;;5049830;28;20802;-55
2023/01/10 07:41:52;;;;;;;6.10;5.10;;;8.20;1.00;;;;;;5053240;28;20488;-55
2023/01/10 07:44:17;;;;;;;6.37;5.60;;;8.20;1.00;;;;;;5048545;28;20666;-54
2023/01/10 07:46:43;;;;;;;8.53;5.10;;;8.20;1.00;;;;;;5049763;28;20420;-55
2023/01/10 07:49:09;;;;;;;7.30;5.30;;;8.10;1.00;;;;;;5049600;28;20224;-56
2023/01/10 07:51:34;;;;;;;7.77;5.80;;;8.00;1.00;;;;;;5049911;28;20296;-54
2023/01/10 07:54:00;;;;;;;9.30;5.33;;;8.00;1.00;;;;;;5049768;28;20280;-55
2023/01/10 07:56:26;;;;;;;8.53;5.97;;;8.10;1.00;;;;;;5049871;28;20264;-53
2023/01/10 07:58:51;;;;;;;6.47;4.93;;;8.00;1.00;;;;;;5055272;28;20324;-53
2023/01/10 08:01:17;;;;;;;8.07;5.47;;;8.00;1.00;;;;;;5050152;28;20220;-53
2023/01/10 08:03:42;;;;;;;7.90;5.77;;;8.10;1.00;;;;;;5050030;28;20630;-55
2023/01/10 08:06:10;;;;;;;8.27;5.47;;;8.20;1.00;;;;;;5049293;28;20197;-55
2023/01/10 08:08:35;;;;;;;10.00;6.07;;;8.10;1.00;;;;;;5047901;28;20205;-54
2023/01/10 08:11:01;;;;;;;10.40;5.97;;;8.10;1.00;;;;;;5049882;28;20452;-55
2023/01/10 08:13:28;;;;;;;7.60;5.97;;;8.20;1.00;;;;;;5049429;28;20207;-55
2023/01/10 08:15:53;;;;;;;6.97;5.00;;;8.30;1.00;;;;;;5051796;28;20282;-56
2023/01/10 08:18:21;;;;;;;8.97;5.63;;;8.20;1.00;;;;;;5050555;28;20534;-53
2023/01/10 08:20:53;;;;;;;6.87;5.37;;;8.20;1.00;;;;;;5047992;28;20209;-54
2023/01/10 08:23:19;;;;;;;5.33;4.57;;;8.20;1.00;;;;;;5045971;28;20522;-54
2023/01/10 08:25:45;;;;;;;8.80;5.20;;;8.30;1.00;;;;;;5046665;28;20440;-54
2023/01/10 08:28:12;;;;;;;7.37;5.53;;;8.10;1.00;;;;;;5048840;28;20414;-55
2023/01/10 08:30:38;;;;;;;6.93;4.73;;;8.30;1.00;;;;;;5048833;28;20460;-56
2023/01/10 08:33:05;;;;;;;13.27;5.10;;;8.20;1.00;;;;;;5048568;28;20459;-54
2023/01/10 08:35:35;;;;;;;7.17;5.57;;;8.30;1.00;;;;;;5047550;28;20447;-54
2023/01/10 08:38:01;;;;;;;5.60;4.80;;;8.10;1.00;;;;;;5056162;28;20776;-55
2023/01/10 08:40:26;;;;;;;7.37;5.33;;;8.20;1.00;;;;;;5056009;28;20455;-54
2023/01/10 08:43:01;;;;;;;7.10;5.20;;;8.30;1.00;;;;;;5049567;28;20443;-55
2023/01/10 08:45:27;;;;;;;9.73;5.83;;;8.30;1.00;;;;;;5049038;28;20182;-54
2023/01/10 08:47:53;;;;;;;7.00;5.67;;;8.30;1.00;;;;;;5048207;28;20447;-54
2023/01/10 08:50:18;;;;;;;12.77;7.77;;;8.30;1.00;;;;;;5049446;28;20463;-56
2023/01/10 08:52:44;;;;;;;14.10;5.17;;;8.40;1.00;;;;;;5049192;28;20441;-54
2023/01/10 08:55:10;;;;;;;5.80;4.93;;;8.20;1.00;;;;;;5049027;28;20193;-55
2023/01/10 08:57:36;;;;;;;7.77;4.57;;;8.10;1.00;;;;;;5049121;28;20188;-54
2023/01/10 09:00:02;;;;;;;4.83;4.17;;;8.10;1.00;;;;;;5049368;28;20438;-54
2023/01/10 09:02:27;;;;;;;4.87;4.20;;;8.10;1.00;;;;;;5047533;28;20562;-54
2023/01/10 09:04:53;;;;;;;6.30;4.67;;;8.00;1.00;;;;;;5048982;28;20459;-54
2023/01/10 09:07:19;;;;;;;4.60;3.80;;;7.90;1.00;;;;;;5047959;28;20260;-55
2023/01/10 09:09:44;;;;;;;6.83;4.67;;;7.90;1.00;;;;;;5048233;28;20212;-55
2023/01/10 09:14:54;;;;;;;4.20;3.10;;;8.00;1.00;;;;;;5049168;28;20246;-55
2023/01/10 09:17:20;;;;;;;3.27;2.50;;;8.00;1.00;;;;;;5048207;28;20447;-55
2023/01/10 09:19:45;;;;;;;4.30;2.50;;;8.10;1.00;;;;;;5048753;28;20196;-54
2023/01/10 09:22:11;;;;;;;3.93;2.60;;;8.20;1.00;;;;;;5047463;28;20218;-54
2023/01/10 09:24:38;;;;;;;4.23;2.17;;;8.30;1.00;;;;;;5048111;28;20567;-55
2023/01/10 09:27:03;;;;;;;2.30;2.00;;;8.40;1.00;;;;;;5052913;28;20194;-54
2023/01/10 09:29:29;;;;;;;2.60;2.00;;;8.50;1.00;;;;;;5049320;28;20517;-54
2023/01/10 09:31:55;;;;;;;2.37;2.10;;;8.70;1.00;;;;;;5060279;28;20628;-54
2023/01/10 09:34:21;;;;;;;2.77;1.80;;;8.70;1.00;;;;;;5047981;28;20718;-53
2023/01/10 09:36:47;;;;;;;2.10;1.90;;;8.60;1.00;;;;;;5048169;28;20203;-54
2023/01/10 09:39:12;;;;;;;2.13;1.93;;;8.70;1.00;;;;;;5045693;28;20459;-54
2023/01/10 09:41:57;;;;;;;2.27;1.87;;;8.60;1.00;;;;;;5047844;28;20245;-54
2023/01/10 09:44:56;;;;;;;1.83;1.47;;;8.30;1.00;;;;;;5045776;28;20185;-55
2023/01/10 09:47:59;;;;;;;2.30;2.10;;;8.20;1.00;;;;;;5062291;28;20737;-54
2023/01/10 09:50:50;;;;;;;2.50;2.17;;;8.40;1.00;;;;;;5053745;28;20476;-54
2023/01/10 09:53:22;;;;;;;4.50;2.43;;;8.50;1.00;;;;;;5045854;28;20472;-55
2023/01/10 09:55:53;;;;;;;9.60;3.10;;;8.40;1.00;;;;;;5049195;28;20445;-53
2023/01/10 09:58:23;;;;;;;5.83;3.70;;;8.30;1.00;;;;;;5059914;28;20443;-53
2023/01/10 10:01:10;;;;;;;6.53;3.70;;;8.40;1.00;;;;;;5058720;28;20491;-54
2023/01/10 10:04:14;;;;;;;7.17;3.47;;;8.40;1.00;;;;;;5047665;28;20436;-55
2023/01/10 10:06:39;;;;;;;4.63;3.53;;;8.40;1.00;;;;;;5048653;28;20920;-54
2023/01/10 10:09:07;;;;;;;5.20;4.07;;;8.50;1.00;;;;;;5054153;28;20410;-55
2023/01/10 10:11:57;;;;;;;7.77;3.77;;;8.50;1.00;;;;;;5068591;28;20192;-55
2023/01/10 10:14:43;;;;;;;7.07;4.00;;;8.50;1.00;;;;;;5065455;28;20954;-54
2023/01/10 10:17:16;;;;;;;4.20;3.40;;;8.50;1.00;;;;;;5048820;28;20424;-54
2023/01/10 10:19:56;;;;;;;9.80;3.53;;;8.70;1.00;;;;;;5047047;28;20952;-54
2023/01/10 10:22:28;;;;;;;6.17;4.23;;;8.90;1.00;;;;;;5052564;28;20481;-55
2023/01/10 10:25:08;;;;;;;5.70;4.00;;;8.90;1.00;;;;;;5048635;28;20961;-54
2023/01/10 10:28:04;;;;;;;9.37;4.40;;;9.00;1.00;;;;;;5048310;28;20455;-54
2023/01/10 10:31:01;;;;;;;4.50;3.30;;;9.00;1.00;;;;;;5056986;28;20423;-56
2023/01/10 10:33:41;;;;;;;8.80;3.53;;;9.00;1.00;;;;;;5052957;28;20890;-54
2023/01/10 10:36:17;;;;;;;6.30;4.13;;;9.00;1.00;;;;;;5067943;28;20462;-55
2023/01/10 10:38:45;;;;;;;4.13;3.77;;;9.10;1.00;;;;;;5065986;28;20467;-54
2023/01/10 10:41:36;;;;;;;6.30;4.10;;;9.20;1.00;;;;;;5050853;28;20566;-55
2023/01/10 10:44:31;;;;;;;8.03;3.40;;;9.20;1.00;;;;;;5049061;28;20492;-54
2023/01/10 10:47:00;;;;;;;4.20;1.77;;;9.20;1.00;;;;;;5051251;28;20428;-56
2023/01/10 10:49:34;;;;;;;3.37;2.00;;;9.10;1.00;;;;;;5050621;28;20848;-55
2023/01/10 10:52:04;;;;;;;10.50;4.17;;;9.00;1.00;;;;;;5051104;28;20451;-55
2023/01/10 10:54:32;;;;;;;3.33;3.03;;;9.00;1.00;;;;;;5049902;28;21063;-54
2023/01/10 10:56:58;;;;;;;5.90;2.03;;;9.00;1.00;;;;;;5049291;28;20924;-55
2023/01/10 10:59:23;;;;;;;5.13;2.40;;;9.10;1.00;;;;;;5050260;28;20430;-55
2023/01/10 11:01:50;;;;;;;2.80;1.97;;;9.10;1.00;;;;;;5050582;28;20214;-55
2023/01/10 11:04:19;;;;;;;2.80;1.60;;;8.90;1.00;;;;;;5050709;28;20193;-54
2023/01/10 11:06:48;;;;;;;3.97;2.20;;;9.00;1.00;;;;;;5049475;28;20412;-55
2023/01/10 11:12:23;;;;;;;10.90;3.40;;;9.00;1.00;;;;;;5040280;28;20430;-56
2023/01/10 11:14:50;;;;;;;3.23;2.30;;;9.00;1.00;;;;;;5050070;28;20510;-54
2023/01/10 11:17:20;;;;;;;4.20;2.57;;;9.10;1.00;;;;;;5050362;28;20857;-53
2023/01/10 11:20:02;;;;;;;3.93;2.77;;;9.20;1.00;;;;;;5049978;28;20447;-55
2023/01/10 11:22:38;;;;;;;4.00;2.63;;;9.10;1.00;;;;;;5050493;28;20473;-53
2023/01/10 11:25:04;;;;;;;7.30;3.67;;;9.20;1.00;;;;;;5050553;28;20453;-55
2023/01/10 11:27:44;;;;;;;4.80;3.37;;;9.20;1.00;;;;;;5050775;28;20429;-54
2023/01/10 11:30:18;;;;;;;3.77;2.90;;;9.20;1.00;;;;;;5050600;28;20435;-55
2023/01/10 11:32:56;;;;;;;7.30;3.37;;;9.10;1.00;;;;;;5050851;28;21144;-55
2023/01/10 11:35:40;;;;;;;6.43;3.73;;;9.10;1.00;;;;;;5050919;28;20454;-55
2023/01/10 11:38:19;;;;;;;5.50;3.37;;;9.10;1.00;;;;;;5050592;28;20512;-55
2023/01/10 11:41:21;;;;;;;7.10;3.83;;;9.30;1.00;;;;;;5050003;28;20806;-55
2023/01/10 11:43:47;;;;;;;8.00;4.10;;;9.30;1.00;;;;;;5045850;28;20444;-55
2023/01/10 11:46:20;;;;;;;6.07;4.00;;;9.40;1.00;;;;;;5050469;28;20442;-54
2023/01/10 11:49:02;;;;;;;5.97;3.70;;;9.50;1.00;;;;;;5050533;28;20228;-54
2023/01/10 11:51:32;;;;;;;6.73;3.83;;;9.50;1.00;;;;;;5050343;28;20415;-55
2023/01/10 11:54:04;;;;;;;8.07;4.23;;;9.50;1.00;;;;;;5050410;28;20448;-55
2023/01/10 11:56:35;;;;;;;5.30;4.30;;;9.70;1.00;;;;;;5052351;28;20469;-55
2023/01/10 11:59:15;;;;;;;8.33;3.90;;;9.70;1.00;;;;;;5063957;28;20540;-55
2023/01/10 12:02:21;;;;;;;7.10;3.87;;;9.60;1.00;;;;;;5048035;28;20450;-54
2023/01/10 12:04:49;;;;;;;5.30;3.30;;;9.60;1.00;;;;;;5050250;28;20444;-55
2023/01/10 12:07:17;;;;;;;7.30;3.90;;;9.70;1.00;;;;;;5057201;28;20435;-54
2023/01/10 12:09:53;;;;;;;9.23;3.40;;;9.70;1.00;;;;;;5051420;28;20501;-54
2023/01/10 12:12:33;;;;;;;7.07;3.07;;;9.70;1.00;;;;;;5069904;28;20487;-55
2023/01/10 12:15:20;;;;;;;6.90;2.93;;;9.70;1.00;;;;;;5066728;28;20441;-54
2023/01/10 12:17:46;;;;;;;4.20;3.17;;;9.50;1.00;;;;;;5048115;28;20551;-55
2023/01/10 12:20:13;;;;;;;6.37;2.47;;;9.40;1.00;;;;;;5049874;28;20506;-53
2023/01/10 12:22:46;;;;;;;8.03;3.00;;;9.50;1.00;;;;;;5049939;28;20233;-54
2023/01/10 12:25:18;;;;;;;7.27;3.23;;;9.70;1.00;;;;;;5052495;28;20465;-56
2023/01/10 12:27:48;;;;;;;9.13;3.17;;;9.80;1.00;;;;;;5068248;28;20447;-53
2023/01/10 12:30:24;;;;;;;3.10;2.33;;;9.80;1.00;;;;;;5048716;28;20452;-55
2023/01/10 12:32:53;;;;;;;6.63;2.80;;;9.90;1.00;;;;;;5049847;28;20523;-55
2023/01/10 12:35:35;;;;;;;7.13;3.57;;;9.90;1.00;;;;;;5052968;28;20817;-56
2023/01/10 12:44:36;;;;;;;8.30;2.73;;;10.00;1.00;;;;;;5049391;28;20434;-55
2023/01/10 12:47:20;;;;;;;6.93;3.13;;;10.00;1.00;;;;;;5049563;28;20462;-55
2023/01/10 12:49:52;;;;;;;11.60;3.13;;;10.20;1.00;;;;;;5048793;28;20464;-55
2023/01/10 12:52:30;;;;;;;5.43;2.80;;;10.20;1.00;;;;;;5046425;28;20488;-55
2023/01/10 12:54:56;;;;;;;4.07;2.40;;;10.00;1.00;;;;;;5049110;28;21165;-54
2023/01/10 12:57:36;;;;;;;4.43;2.20;;;10.00;1.00;;;;;;5049283;28;20507;-54
2023/01/10 13:00:05;;;;;;;8.23;3.00;;;10.00;1.00;;;;;;5054321;28;20416;-55
2023/01/10 13:02:44;;;;;;;7.17;2.67;;;10.00;1.00;;;;;;5056093;28;20558;-55
2023/01/10 13:05:23;;;;;;;4.63;2.50;;;10.00;1.00;;;;;;5049001;28;20447;-54
2023/01/10 13:07:51;;;;;;;6.00;2.50;;;10.00;1.00;;;;;;5048488;28;20495;-56
2023/01/10 13:10:20;;;;;;;9.70;3.30;;;10.10;1.00;;;;;;5030986;28;20456;-55
2023/01/10 13:12:55;;;;;;;8.50;2.67;;;10.20;1.00;;;;;;5048481;28;20999;-54
2023/01/10 13:15:28;;;;;;;6.43;2.60;;;10.20;1.00;;;;;;5049055;28;20451;-54
2023/01/10 13:18:04;;;;;;;6.10;2.93;;;10.10;1.00;;;;;;5047487;28;20471;-53
2023/01/10 13:20:38;;;;;;;4.30;2.50;;;9.90;1.00;;;;;;5048907;28;20950;-56
2023/01/10 13:23:25;;;;;;;6.60;2.40;;;9.80;1.00;;;;;;5048427;28;20494;-56
2023/01/10 13:25:59;;;;;;;4.13;2.23;;;9.80;1.00;;;;;;5050788;28;20528;-54
2023/01/10 13:28:27;;;;;;;4.30;2.40;;;9.90;1.00;;;;;;5048316;28;20882;-54
2023/01/10 13:31:02;;;;;;;2.97;2.10;;;9.90;1.00;;;;;;5048726;28;20994;-56
2023/01/10 13:33:52;;;;;;;5.17;2.37;;;9.80;1.00;;;;;;5048691;28;20413;-56
2023/01/10 13:36:22;;;;;;;12.63;2.57;;;9.70;1.00;;;;;;5048186;28;20483;-54
2023/01/10 13:38:55;;;;;;;7.13;2.00;;;9.80;1.00;;;;;;5048712;28;20756;-55
2023/01/10 13:44:11;;;;;;;5.67;2.30;;;9.60;1.00;;;;;;5048175;28;20470;-54
2023/01/10 13:46:50;;;;;;;5.37;2.60;;;9.60;1.00;;;;;;5048614;28;20419;-54